sensor_id;sensor_type;location;lat;lon;timestamp;temperature;humidity
10826;DHT22;5466;55.898;14.094;2023-11-19T00:01:48;-0.40;99.90
10826;DHT22;5466;55.898;14.094;2023-11-19T00:03:49;-0.40;99.90
10826;DHT22;5466;55.898;14.094;2023-11-19T00:05:50;-0.40;99.90
10826;DHT22;5466;55.898;14.094;2023-11-19T00:07:52;-0.30;99.90
10826;DHT22;5466;55.898;14.094;2023-11-19T00:09:53;-0.30;99.90
10826;DHT22;5466;55.898;14.094;2023-11-19T00:11:55;-0.30;99.90
10826;DHT22;5466;55.898;14.094;2023-11-19T00:13:56;-0.30;99.90
10826;DHT22;5466;55.898;14.094;2023-11-19T00:15:56;-0.30;99.90
10826;DHT22;5466;55.898;14.094;2023-11-19T00:17:57;-0.30;99.90
10826;DHT22;5466;55.898;14.094;2023-11-19T00:19:58;-0.30;99.90
10826;DHT22;5466;55.898;14.094;2023-11-19T00:21:58;-0.40;99.90
10826;DHT22;5466;55.898;14.094;2023-11-19T00:24:03;-0.50;99.90
10826;DHT22;5466;55.898;14.094;2023-11-19T00:26:05;-0.50;99.90
10826;DHT22;5466;55.898;14.094;2023-11-19T00:28:06;-0.50;99.90
10826;DHT22;5466;55.898;14.094;2023-11-19T00:30:07;-0.60;99.90
10826;DHT22;5466;55.898;14.094;2023-11-19T00:32:11;-0.50;99.90
10826;DHT22;5466;55.898;14.094;2023-11-19T00:34:12;-0.60;99.90
10826;DHT22;5466;55.898;14.094;2023-11-19T00:36:12;-0.60;99.90
10826;DHT22;5466;55.898;14.094;2023-11-19T00:38:13;-0.50;99.90
10826;DHT22;5466;55.898;14.094;2023-11-19T00:40:14;-0.60;99.90
10826;DHT22;5466;55.898;14.094;2023-11-19T00:42:16;-0.60;99.90
10826;DHT22;5466;55.898;14.094;2023-11-19T00:44:17;-0.70;99.90
10826;DHT22;5466;55.898;14.094;2023-11-19T00:46:18;-0.70;99.90
10826;DHT22;5466;55.898;14.094;2023-11-19T00:48:18;-0.70;99.90
10826;DHT22;5466;55.898;14.094;2023-11-19T00:50:19;-0.70;99.90
10826;DHT22;5466;55.898;14.094;2023-11-19T00:52:20;-0.70;99.90
10826;DHT22;5466;55.898;14.094;2023-11-19T00:54:20;-0.80;99.90
10826;DHT22;5466;55.898;14.094;2023-11-19T00:56:21;-0.80;99.90
10826;DHT22;5466;55.898;14.094;2023-11-19T00:58:22;-0.90;99.90
10826;DHT22;5466;55.898;14.094;2023-11-19T01:00:22;-0.90;99.90
10826;DHT22;5466;55.898;14.094;2023-11-19T01:02:25;-0.90;99.90
10826;DHT22;5466;55.898;14.094;2023-11-19T01:04:25;-0.90;99.90
10826;DHT22;5466;55.898;14.094;2023-11-19T01:06:30;-0.90;99.90
10826;DHT22;5466;55.898;14.094;2023-11-19T01:08:31;-0.90;99.90
10826;DHT22;5466;55.898;14.094;2023-11-19T01:10:32;-0.90;99.90
10826;DHT22;5466;55.898;14.094;2023-11-19T01:12:32;-0.90;99.90
10826;DHT22;5466;55.898;14.094;2023-11-19T01:14:33;-0.90;99.90
10826;DHT22;5466;55.898;14.094;2023-11-19T01:16:33;-0.90;99.90
10826;DHT22;5466;55.898;14.094;2023-11-19T01:18:34;-0.90;99.90
10826;DHT22;5466;55.898;14.094;2023-11-19T01:20:36;-0.80;99.90
10826;DHT22;5466;55.898;14.094;2023-11-19T01:22:37;-0.80;99.90
10826;DHT22;5466;55.898;14.094;2023-11-19T01:24:37;-0.70;99.90
10826;DHT22;5466;55.898;14.094;2023-11-19T01:26:38;-0.60;99.90
10826;DHT22;5466;55.898;14.094;2023-11-19T01:28:39;-0.50;99.90
10826;DHT22;5466;55.898;14.094;2023-11-19T01:30:43;-0.50;99.90
10826;DHT22;5466;55.898;14.094;2023-11-19T01:32:43;-0.50;99.90
10826;DHT22;5466;55.898;14.094;2023-11-19T01:34:44;-0.50;99.90
10826;DHT22;5466;55.898;14.094;2023-11-19T01:36:46;-0.40;99.90
10826;DHT22;5466;55.898;14.094;2023-11-19T01:38:47;-0.40;99.90
10826;DHT22;5466;55.898;14.094;2023-11-19T01:40:48;-0.40;99.90
10826;DHT22;5466;55.898;14.094;2023-11-19T01:42:49;-0.40;99.90
10826;DHT22;5466;55.898;14.094;2023-11-19T01:44:59;-0.40;99.90
10826;DHT22;5466;55.898;14.094;2023-11-19T01:47:01;-0.30;99.90
10826;DHT22;5466;55.898;14.094;2023-11-19T01:49:02;-0.30;99.90
10826;DHT22;5466;55.898;14.094;2023-11-19T01:51:05;-0.30;99.90
10826;DHT22;5466;55.898;14.094;2023-11-19T01:53:07;-0.40;99.90
10826;DHT22;5466;55.898;14.094;2023-11-19T01:55:09;-0.30;99.90
10826;DHT22;5466;55.898;14.094;2023-11-19T01:57:11;-0.30;99.90
10826;DHT22;5466;55.898;14.094;2023-11-19T01:59:12;-0.30;99.90
10826;DHT22;5466;55.898;14.094;2023-11-19T02:01:16;-0.40;99.90
10826;DHT22;5466;55.898;14.094;2023-11-19T02:03:17;-0.30;99.90
10826;DHT22;5466;55.898;14.094;2023-11-19T02:05:18;-0.30;99.90
10826;DHT22;5466;55.898;14.094;2023-11-19T02:07:18;-0.30;99.90
10826;DHT22;5466;55.898;14.094;2023-11-19T02:09:19;-0.40;99.90
10826;DHT22;5466;55.898;14.094;2023-11-19T02:11:20;-0.40;99.90
10826;DHT22;5466;55.898;14.094;2023-11-19T02:13:21;-0.30;99.90
10826;DHT22;5466;55.898;14.094;2023-11-19T02:15:21;-0.40;99.90
10826;DHT22;5466;55.898;14.094;2023-11-19T02:17:31;-0.40;99.90
10826;DHT22;5466;55.898;14.094;2023-11-19T02:19:32;-0.40;99.90
10826;DHT22;5466;55.898;14.094;2023-11-19T02:21:32;-0.40;99.90
10826;DHT22;5466;55.898;14.094;2023-11-19T02:23:33;-0.40;99.90
10826;DHT22;5466;55.898;14.094;2023-11-19T02:25:34;-0.40;99.90
10826;DHT22;5466;55.898;14.094;2023-11-19T02:29:39;-0.40;99.90
10826;DHT22;5466;55.898;14.094;2023-11-19T02:31:40;-0.40;99.90
10826;DHT22;5466;55.898;14.094;2023-11-19T02:33:40;-0.40;99.90
10826;DHT22;5466;55.898;14.094;2023-11-19T02:35:41;-0.40;99.90
10826;DHT22;5466;55.898;14.094;2023-11-19T02:37:42;-0.40;99.90
10826;DHT22;5466;55.898;14.094;2023-11-19T02:39:42;-0.50;99.90
10826;DHT22;5466;55.898;14.094;2023-11-19T02:41:43;-0.50;99.90
10826;DHT22;5466;55.898;14.094;2023-11-19T02:43:44;-0.50;99.90
10826;DHT22;5466;55.898;14.094;2023-11-19T02:45:44;-0.50;99.90
10826;DHT22;5466;55.898;14.094;2023-11-19T02:47:46;-0.40;99.90
10826;DHT22;5466;55.898;14.094;2023-11-19T02:49:46;-0.40;99.90
10826;DHT22;5466;55.898;14.094;2023-11-19T02:51:48;-0.40;99.90
10826;DHT22;5466;55.898;14.094;2023-11-19T02:53:49;-0.40;99.90
10826;DHT22;5466;55.898;14.094;2023-11-19T02:55:49;-0.40;99.90
10826;DHT22;5466;55.898;14.094;2023-11-19T02:57:51;-0.40;99.90
10826;DHT22;5466;55.898;14.094;2023-11-19T02:59:53;-0.40;99.90
10826;DHT22;5466;55.898;14.094;2023-11-19T03:01:57;-0.40;99.90
10826;DHT22;5466;55.898;14.094;2023-11-19T03:03:59;-0.40;99.90
10826;DHT22;5466;55.898;14.094;2023-11-19T03:06:02;-0.40;99.90
10826;DHT22;5466;55.898;14.094;2023-11-19T03:08:05;-0.40;99.90
10826;DHT22;5466;55.898;14.094;2023-11-19T03:10:06;-0.40;99.90
10826;DHT22;5466;55.898;14.094;2023-11-19T03:12:09;-0.40;99.90
10826;DHT22;5466;55.898;14.094;2023-11-19T03:14:10;-0.30;99.90
10826;DHT22;5466;55.898;14.094;2023-11-19T03:16:10;-0.40;99.90
10826;DHT22;5466;55.898;14.094;2023-11-19T03:18:11;-0.30;99.90
10826;DHT22;5466;55.898;14.094;2023-11-19T03:20:12;-0.30;99.90
10826;DHT22;5466;55.898;14.094;2023-11-19T03:22:17;-0.30;99.90
10826;DHT22;5466;55.898;14.094;2023-11-19T03:24:17;-0.30;99.90
10826;DHT22;5466;55.898;14.094;2023-11-19T03:26:18;-0.30;99.90
10826;DHT22;5466;55.898;14.094;2023-11-19T03:28:19;-0.30;99.90
10826;DHT22;5466;55.898;14.094;2023-11-19T03:30:19;-0.30;99.90
10826;DHT22;5466;55.898;14.094;2023-11-19T03:32:21;-0.20;99.90
10826;DHT22;5466;55.898;14.094;2023-11-19T03:34:21;-0.20;99.90
10826;DHT22;5466;55.898;14.094;2023-11-19T03:36:22;-0.20;99.90
10826;DHT22;5466;55.898;14.094;2023-11-19T03:38:24;-0.10;99.90
10826;DHT22;5466;55.898;14.094;2023-11-19T03:40:25;0.00;99.90
10826;DHT22;5466;55.898;14.094;2023-11-19T03:42:29;0.00;99.90
10826;DHT22;5466;55.898;14.094;2023-11-19T03:44:32;0.00;99.90
10826;DHT22;5466;55.898;14.094;2023-11-19T03:46:33;0.10;99.90
10826;DHT22;5466;55.898;14.094;2023-11-19T03:48:33;0.20;99.90
10826;DHT22;5466;55.898;14.094;2023-11-19T03:50:34;0.30;99.90
10826;DHT22;5466;55.898;14.094;2023-11-19T03:52:35;0.30;99.90
10826;DHT22;5466;55.898;14.094;2023-11-19T03:54:36;0.30;99.90
10826;DHT22;5466;55.898;14.094;2023-11-19T03:56:37;0.40;99.90
10826;DHT22;5466;55.898;14.094;2023-11-19T03:58:38;0.50;99.90
10826;DHT22;5466;55.898;14.094;2023-11-19T04:00:39;0.60;99.90
10826;DHT22;5466;55.898;14.094;2023-11-19T04:02:41;0.80;99.90
10826;DHT22;5466;55.898;14.094;2023-11-19T04:04:42;1.00;99.90
10826;DHT22;5466;55.898;14.094;2023-11-19T04:06:42;1.00;99.90
10826;DHT22;5466;55.898;14.094;2023-11-19T04:08:43;1.10;99.90
10826;DHT22;5466;55.898;14.094;2023-11-19T04:10:44;1.10;99.90
10826;DHT22;5466;55.898;14.094;2023-11-19T04:12:45;1.20;99.90
10826;DHT22;5466;55.898;14.094;2023-11-19T04:14:46;1.20;99.90
10826;DHT22;5466;55.898;14.094;2023-11-19T04:16:47;1.20;99.90
10826;DHT22;5466;55.898;14.094;2023-11-19T04:18:48;1.20;99.90
10826;DHT22;5466;55.898;14.094;2023-11-19T04:20:48;1.20;99.90
10826;DHT22;5466;55.898;14.094;2023-11-19T04:22:50;1.20;99.90
10826;DHT22;5466;55.898;14.094;2023-11-19T04:24:51;1.20;99.90
10826;DHT22;5466;55.898;14.094;2023-11-19T04:26:52;1.40;99.90
10826;DHT22;5466;55.898;14.094;2023-11-19T04:28:52;1.40;99.90
10826;DHT22;5466;55.898;14.094;2023-11-19T04:30:53;1.60;99.90
10826;DHT22;5466;55.898;14.094;2023-11-19T04:32:54;1.70;99.90
10826;DHT22;5466;55.898;14.094;2023-11-19T04:34:54;1.90;99.90
10826;DHT22;5466;55.898;14.094;2023-11-19T04:36:55;2.10;99.90
10826;DHT22;5466;55.898;14.094;2023-11-19T04:38:56;2.10;99.90
10826;DHT22;5466;55.898;14.094;2023-11-19T04:40:56;2.10;99.90
10826;DHT22;5466;55.898;14.094;2023-11-19T04:42:57;2.20;99.90
10826;DHT22;5466;55.898;14.094;2023-11-19T04:44:58;2.20;99.90
10826;DHT22;5466;55.898;14.094;2023-11-19T04:46:58;2.20;99.90
10826;DHT22;5466;55.898;14.094;2023-11-19T04:48:59;2.30;99.90
10826;DHT22;5466;55.898;14.094;2023-11-19T04:51:00;2.30;99.90
10826;DHT22;5466;55.898;14.094;2023-11-19T04:53:00;2.40;99.90
10826;DHT22;5466;55.898;14.094;2023-11-19T04:55:01;2.40;99.90
10826;DHT22;5466;55.898;14.094;2023-11-19T04:57:01;2.40;99.90
10826;DHT22;5466;55.898;14.094;2023-11-19T04:59:02;2.50;99.90
10826;DHT22;5466;55.898;14.094;2023-11-19T05:01:06;2.50;99.90
10826;DHT22;5466;55.898;14.094;2023-11-19T05:03:06;2.50;99.90
10826;DHT22;5466;55.898;14.094;2023-11-19T05:05:07;2.50;99.90
10826;DHT22;5466;55.898;14.094;2023-11-19T05:07:09;2.60;99.90
10826;DHT22;5466;55.898;14.094;2023-11-19T05:09:10;2.60;99.90
10826;DHT22;5466;55.898;14.094;2023-11-19T05:11:13;2.70;99.90
10826;DHT22;5466;55.898;14.094;2023-11-19T05:13:19;2.70;99.90
10826;DHT22;5466;55.898;14.094;2023-11-19T05:15:20;2.80;99.90
10826;DHT22;5466;55.898;14.094;2023-11-19T05:17:20;2.80;99.90
10826;DHT22;5466;55.898;14.094;2023-11-19T05:19:21;2.80;99.90
10826;DHT22;5466;55.898;14.094;2023-11-19T05:21:22;2.80;99.90
10826;DHT22;5466;55.898;14.094;2023-11-19T05:23:22;2.80;99.90
10826;DHT22;5466;55.898;14.094;2023-11-19T05:25:23;2.90;99.90
10826;DHT22;5466;55.898;14.094;2023-11-19T05:27:23;2.90;99.90
10826;DHT22;5466;55.898;14.094;2023-11-19T05:29:24;3.00;99.90
10826;DHT22;5466;55.898;14.094;2023-11-19T05:31:25;3.00;99.90
10826;DHT22;5466;55.898;14.094;2023-11-19T05:33:26;3.10;99.90
10826;DHT22;5466;55.898;14.094;2023-11-19T05:35:26;3.10;99.90
10826;DHT22;5466;55.898;14.094;2023-11-19T05:37:27;3.20;99.90
10826;DHT22;5466;55.898;14.094;2023-11-19T05:39:28;3.30;99.90
10826;DHT22;5466;55.898;14.094;2023-11-19T05:41:28;3.30;99.90
10826;DHT22;5466;55.898;14.094;2023-11-19T05:43:29;3.30;99.90
10826;DHT22;5466;55.898;14.094;2023-11-19T05:45:30;3.30;99.90
10826;DHT22;5466;55.898;14.094;2023-11-19T05:47:30;3.40;99.90
10826;DHT22;5466;55.898;14.094;2023-11-19T05:49:31;3.50;99.90
10826;DHT22;5466;55.898;14.094;2023-11-19T05:51:32;3.50;99.90
10826;DHT22;5466;55.898;14.094;2023-11-19T05:53:37;3.60;99.90
10826;DHT22;5466;55.898;14.094;2023-11-19T05:55:38;3.60;99.90
10826;DHT22;5466;55.898;14.094;2023-11-19T05:57:46;3.70;99.90
10826;DHT22;5466;55.898;14.094;2023-11-19T05:59:46;3.70;99.90
10826;DHT22;5466;55.898;14.094;2023-11-19T06:01:47;3.80;99.90
10826;DHT22;5466;55.898;14.094;2023-11-19T06:03:48;3.90;99.90
10826;DHT22;5466;55.898;14.094;2023-11-19T06:05:50;3.90;99.90
10826;DHT22;5466;55.898;14.094;2023-11-19T06:07:51;3.90;99.90
10826;DHT22;5466;55.898;14.094;2023-11-19T06:09:51;3.90;99.90
10826;DHT22;5466;55.898;14.094;2023-11-19T06:11:52;4.00;99.90
10826;DHT22;5466;55.898;14.094;2023-11-19T06:13:53;4.00;99.90
10826;DHT22;5466;55.898;14.094;2023-11-19T06:15:54;4.00;99.90
10826;DHT22;5466;55.898;14.094;2023-11-19T06:17:54;4.00;99.90
10826;DHT22;5466;55.898;14.094;2023-11-19T06:19:55;4.00;99.90
10826;DHT22;5466;55.898;14.094;2023-11-19T06:21:56;4.00;99.90
10826;DHT22;5466;55.898;14.094;2023-11-19T06:23:56;4.00;99.90
10826;DHT22;5466;55.898;14.094;2023-11-19T06:25:57;4.10;99.90
10826;DHT22;5466;55.898;14.094;2023-11-19T06:27:57;4.10;99.90
10826;DHT22;5466;55.898;14.094;2023-11-19T06:29:58;4.10;99.90
10826;DHT22;5466;55.898;14.094;2023-11-19T06:31:59;4.10;99.90
10826;DHT22;5466;55.898;14.094;2023-11-19T06:34:00;4.10;99.90
10826;DHT22;5466;55.898;14.094;2023-11-19T06:36:01;4.20;99.90
10826;DHT22;5466;55.898;14.094;2023-11-19T06:38:04;4.20;99.90
10826;DHT22;5466;55.898;14.094;2023-11-19T06:40:05;4.30;99.90
10826;DHT22;5466;55.898;14.094;2023-11-19T06:42:06;4.20;99.90
10826;DHT22;5466;55.898;14.094;2023-11-19T06:44:07;4.20;99.90
10826;DHT22;5466;55.898;14.094;2023-11-19T06:46:17;4.20;99.90
10826;DHT22;5466;55.898;14.094;2023-11-19T06:48:18;4.20;99.90
10826;DHT22;5466;55.898;14.094;2023-11-19T06:50:19;4.20;99.90
10826;DHT22;5466;55.898;14.094;2023-11-19T06:52:19;4.30;99.90
10826;DHT22;5466;55.898;14.094;2023-11-19T06:54:20;4.30;99.90
10826;DHT22;5466;55.898;14.094;2023-11-19T06:56:22;4.40;99.90
10826;DHT22;5466;55.898;14.094;2023-11-19T06:58:23;4.30;99.90
10826;DHT22;5466;55.898;14.094;2023-11-19T07:00:24;4.40;99.90
10826;DHT22;5466;55.898;14.094;2023-11-19T07:02:25;4.30;99.90
10826;DHT22;5466;55.898;14.094;2023-11-19T07:04:25;4.30;99.90
10826;DHT22;5466;55.898;14.094;2023-11-19T07:06:26;4.40;99.90
10826;DHT22;5466;55.898;14.094;2023-11-19T07:08:26;4.30;99.90
10826;DHT22;5466;55.898;14.094;2023-11-19T07:10:27;4.30;99.90
10826;DHT22;5466;55.898;14.094;2023-11-19T07:12:28;4.40;99.90
10826;DHT22;5466;55.898;14.094;2023-11-19T07:14:29;4.40;99.90
10826;DHT22;5466;55.898;14.094;2023-11-19T07:16:29;4.30;99.90
10826;DHT22;5466;55.898;14.094;2023-11-19T07:18:31;4.40;99.90
10826;DHT22;5466;55.898;14.094;2023-11-19T07:20:32;4.30;99.90
10826;DHT22;5466;55.898;14.094;2023-11-19T07:22:33;4.30;99.90
10826;DHT22;5466;55.898;14.094;2023-11-19T07:24:34;4.40;99.90
10826;DHT22;5466;55.898;14.094;2023-11-19T07:26:34;4.40;99.90
10826;DHT22;5466;55.898;14.094;2023-11-19T07:28:35;4.30;99.90
10826;DHT22;5466;55.898;14.094;2023-11-19T07:30:35;4.40;99.90
10826;DHT22;5466;55.898;14.094;2023-11-19T07:32:36;4.40;99.90
10826;DHT22;5466;55.898;14.094;2023-11-19T07:34:39;4.50;99.90
10826;DHT22;5466;55.898;14.094;2023-11-19T07:36:40;4.30;99.90
10826;DHT22;5466;55.898;14.094;2023-11-19T07:38:45;4.40;99.90
10826;DHT22;5466;55.898;14.094;2023-11-19T07:40:46;4.40;99.90
10826;DHT22;5466;55.898;14.094;2023-11-19T07:42:48;4.40;99.90
10826;DHT22;5466;55.898;14.094;2023-11-19T07:44:49;4.50;99.90
10826;DHT22;5466;55.898;14.094;2023-11-19T07:46:49;4.40;99.90
10826;DHT22;5466;55.898;14.094;2023-11-19T07:48:50;4.40;99.90
10826;DHT22;5466;55.898;14.094;2023-11-19T07:50:51;4.40;99.90
10826;DHT22;5466;55.898;14.094;2023-11-19T07:52:52;4.30;99.90
10826;DHT22;5466;55.898;14.094;2023-11-19T07:54:53;4.50;99.90
10826;DHT22;5466;55.898;14.094;2023-11-19T07:56:54;4.40;99.90
10826;DHT22;5466;55.898;14.094;2023-11-19T07:58:55;4.40;99.90
10826;DHT22;5466;55.898;14.094;2023-11-19T08:00:56;4.40;99.90
10826;DHT22;5466;55.898;14.094;2023-11-19T08:02:56;4.40;99.90
10826;DHT22;5466;55.898;14.094;2023-11-19T08:04:57;4.50;99.90
10826;DHT22;5466;55.898;14.094;2023-11-19T08:06:58;4.40;99.90
10826;DHT22;5466;55.898;14.094;2023-11-19T08:08:58;4.50;99.90
10826;DHT22;5466;55.898;14.094;2023-11-19T08:11:00;4.40;99.90
10826;DHT22;5466;55.898;14.094;2023-11-19T08:13:00;4.40;99.90
10826;DHT22;5466;55.898;14.094;2023-11-19T08:15:04;4.40;99.90
10826;DHT22;5466;55.898;14.094;2023-11-19T08:17:05;4.40;99.90
10826;DHT22;5466;55.898;14.094;2023-11-19T08:19:06;4.50;99.90
10826;DHT22;5466;55.898;14.094;2023-11-19T08:21:08;4.30;99.90
10826;DHT22;5466;55.898;14.094;2023-11-19T08:23:09;4.40;99.90
10826;DHT22;5466;55.898;14.094;2023-11-19T08:25:24;4.40;99.90
10826;DHT22;5466;55.898;14.094;2023-11-19T08:27:26;4.40;99.90
10826;DHT22;5466;55.898;14.094;2023-11-19T08:29:27;4.40;99.90
10826;DHT22;5466;55.898;14.094;2023-11-19T08:31:28;4.40;99.90
10826;DHT22;5466;55.898;14.094;2023-11-19T08:33:28;4.40;99.90
10826;DHT22;5466;55.898;14.094;2023-11-19T08:35:29;4.40;99.90
10826;DHT22;5466;55.898;14.094;2023-11-19T08:37:30;4.40;99.90
10826;DHT22;5466;55.898;14.094;2023-11-19T08:39:31;4.40;99.90
10826;DHT22;5466;55.898;14.094;2023-11-19T08:41:32;4.30;99.90
10826;DHT22;5466;55.898;14.094;2023-11-19T08:43:32;4.30;99.90
10826;DHT22;5466;55.898;14.094;2023-11-19T08:45:33;4.30;99.90
10826;DHT22;5466;55.898;14.094;2023-11-19T08:47:34;4.30;99.90
10826;DHT22;5466;55.898;14.094;2023-11-19T08:49:35;4.30;99.90
10826;DHT22;5466;55.898;14.094;2023-11-19T08:51:35;4.30;99.90
10826;DHT22;5466;55.898;14.094;2023-11-19T08:53:36;4.30;99.90
10826;DHT22;5466;55.898;14.094;2023-11-19T08:55:36;4.30;99.90
10826;DHT22;5466;55.898;14.094;2023-11-19T08:57:37;4.40;99.90
10826;DHT22;5466;55.898;14.094;2023-11-19T08:59:38;4.30;99.90
10826;DHT22;5466;55.898;14.094;2023-11-19T09:01:39;4.20;99.90
10826;DHT22;5466;55.898;14.094;2023-11-19T09:03:39;4.30;99.90
10826;DHT22;5466;55.898;14.094;2023-11-19T09:05:40;4.30;99.90
10826;DHT22;5466;55.898;14.094;2023-11-19T09:07:41;4.30;99.90
10826;DHT22;5466;55.898;14.094;2023-11-19T09:09:41;4.20;99.90
10826;DHT22;5466;55.898;14.094;2023-11-19T09:11:42;4.20;99.90
10826;DHT22;5466;55.898;14.094;2023-11-19T09:13:43;4.20;99.90
10826;DHT22;5466;55.898;14.094;2023-11-19T09:15:45;4.30;99.90
10826;DHT22;5466;55.898;14.094;2023-11-19T09:17:46;4.20;99.90
10826;DHT22;5466;55.898;14.094;2023-11-19T09:19:46;4.20;99.90
10826;DHT22;5466;55.898;14.094;2023-11-19T09:21:47;4.20;99.90
10826;DHT22;5466;55.898;14.094;2023-11-19T09:23:48;4.20;99.90
10826;DHT22;5466;55.898;14.094;2023-11-19T09:25:49;4.20;99.90
10826;DHT22;5466;55.898;14.094;2023-11-19T09:27:50;4.20;99.90
10826;DHT22;5466;55.898;14.094;2023-11-19T09:29:50;4.20;99.90
10826;DHT22;5466;55.898;14.094;2023-11-19T09:31:57;4.20;99.90
10826;DHT22;5466;55.898;14.094;2023-11-19T09:33:57;4.30;99.90
10826;DHT22;5466;55.898;14.094;2023-11-19T09:35:58;4.30;99.90
10826;DHT22;5466;55.898;14.094;2023-11-19T09:37:59;4.30;99.90
10826;DHT22;5466;55.898;14.094;2023-11-19T09:39:59;4.30;99.90
10826;DHT22;5466;55.898;14.094;2023-11-19T09:42:00;4.30;99.90
10826;DHT22;5466;55.898;14.094;2023-11-19T09:44:01;4.30;99.90
10826;DHT22;5466;55.898;14.094;2023-11-19T09:46:13;4.30;99.90
10826;DHT22;5466;55.898;14.094;2023-11-19T09:48:16;4.30;99.90
10826;DHT22;5466;55.898;14.094;2023-11-19T09:50:18;4.30;99.90
10826;DHT22;5466;55.898;14.094;2023-11-19T09:52:19;4.30;99.90
10826;DHT22;5466;55.898;14.094;2023-11-19T09:54:20;4.30;99.90
10826;DHT22;5466;55.898;14.094;2023-11-19T09:56:20;4.30;99.90
10826;DHT22;5466;55.898;14.094;2023-11-19T09:58:22;4.30;99.90
10826;DHT22;5466;55.898;14.094;2023-11-19T10:00:23;4.30;99.90
10826;DHT22;5466;55.898;14.094;2023-11-19T10:02:24;4.30;99.90
10826;DHT22;5466;55.898;14.094;2023-11-19T10:04:30;4.40;99.90
10826;DHT22;5466;55.898;14.094;2023-11-19T10:06:31;4.40;99.90
10826;DHT22;5466;55.898;14.094;2023-11-19T10:08:32;4.40;99.90
10826;DHT22;5466;55.898;14.094;2023-11-19T10:10:33;4.40;99.90
10826;DHT22;5466;55.898;14.094;2023-11-19T10:12:34;4.40;99.90
10826;DHT22;5466;55.898;14.094;2023-11-19T10:14:36;4.50;99.90
10826;DHT22;5466;55.898;14.094;2023-11-19T10:16:38;4.50;99.90
10826;DHT22;5466;55.898;14.094;2023-11-19T10:18:47;4.50;99.90
10826;DHT22;5466;55.898;14.094;2023-11-19T10:20:47;4.50;99.90
10826;DHT22;5466;55.898;14.094;2023-11-19T10:22:51;4.60;99.90
10826;DHT22;5466;55.898;14.094;2023-11-19T10:24:52;4.50;99.90
10826;DHT22;5466;55.898;14.094;2023-11-19T10:26:56;4.40;99.90
10826;DHT22;5466;55.898;14.094;2023-11-19T10:28:57;4.40;99.90
10826;DHT22;5466;55.898;14.094;2023-11-19T10:30:58;4.40;99.90
10826;DHT22;5466;55.898;14.094;2023-11-19T10:33:14;4.40;99.90
10826;DHT22;5466;55.898;14.094;2023-11-19T10:35:20;4.30;99.90
10826;DHT22;5466;55.898;14.094;2023-11-19T10:37:30;4.30;99.90
10826;DHT22;5466;55.898;14.094;2023-11-19T10:39:54;4.30;99.90
10826;DHT22;5466;55.898;14.094;2023-11-19T10:41:55;4.20;99.90
10826;DHT22;5466;55.898;14.094;2023-11-19T10:43:56;4.10;99.90
10826;DHT22;5466;55.898;14.094;2023-11-19T10:46:10;4.10;99.90
10826;DHT22;5466;55.898;14.094;2023-11-19T10:48:12;4.10;99.90
10826;DHT22;5466;55.898;14.094;2023-11-19T10:50:13;4.10;99.90
10826;DHT22;5466;55.898;14.094;2023-11-19T10:52:17;4.10;99.90
10826;DHT22;5466;55.898;14.094;2023-11-19T10:54:20;4.10;99.90
10826;DHT22;5466;55.898;14.094;2023-11-19T10:56:25;4.00;99.90
10826;DHT22;5466;55.898;14.094;2023-11-19T10:58:28;4.00;99.90
10826;DHT22;5466;55.898;14.094;2023-11-19T11:02:50;4.10;99.90
10826;DHT22;5466;55.898;14.094;2023-11-19T11:04:55;4.10;99.90
10826;DHT22;5466;55.898;14.094;2023-11-19T11:06:58;4.00;99.90
10826;DHT22;5466;55.898;14.094;2023-11-19T11:08:59;4.10;99.90
10826;DHT22;5466;55.898;14.094;2023-11-19T11:11:02;4.10;99.90
10826;DHT22;5466;55.898;14.094;2023-11-19T11:13:05;4.00;99.90
10826;DHT22;5466;55.898;14.094;2023-11-19T11:15:07;4.00;99.90
10826;DHT22;5466;55.898;14.094;2023-11-19T11:17:09;4.00;99.90
10826;DHT22;5466;55.898;14.094;2023-11-19T11:19:11;4.00;99.90
10826;DHT22;5466;55.898;14.094;2023-11-19T11:21:17;4.00;99.90
10826;DHT22;5466;55.898;14.094;2023-11-19T11:23:36;4.00;99.90
10826;DHT22;5466;55.898;14.094;2023-11-19T11:25:44;4.00;99.90
10826;DHT22;5466;55.898;14.094;2023-11-19T11:30:18;4.00;99.90
10826;DHT22;5466;55.898;14.094;2023-11-19T11:35:03;4.00;99.90
10826;DHT22;5466;55.898;14.094;2023-11-19T11:39:10;4.00;99.90
10826;DHT22;5466;55.898;14.094;2023-11-19T11:41:18;3.90;99.90
10826;DHT22;5466;55.898;14.094;2023-11-19T11:43:52;4.00;99.90
10826;DHT22;5466;55.898;14.094;2023-11-19T11:45:56;4.00;99.90
10826;DHT22;5466;55.898;14.094;2023-11-19T11:50:06;4.00;99.90
10826;DHT22;5466;55.898;14.094;2023-11-19T11:52:09;4.00;99.90
10826;DHT22;5466;55.898;14.094;2023-11-19T11:56:21;4.00;99.90
10826;DHT22;5466;55.898;14.094;2023-11-19T11:58:26;4.00;99.90
10826;DHT22;5466;55.898;14.094;2023-11-19T12:00:27;3.90;99.90
10826;DHT22;5466;55.898;14.094;2023-11-19T12:02:30;3.90;99.90
10826;DHT22;5466;55.898;14.094;2023-11-19T12:04:30;3.90;99.90
10826;DHT22;5466;55.898;14.094;2023-11-19T12:06:32;4.00;99.90
10826;DHT22;5466;55.898;14.094;2023-11-19T12:08:34;4.00;99.90
10826;DHT22;5466;55.898;14.094;2023-11-19T12:10:55;4.00;99.90
10826;DHT22;5466;55.898;14.094;2023-11-19T12:13:04;3.90;99.90
10826;DHT22;5466;55.898;14.094;2023-11-19T12:15:09;4.00;99.90
10826;DHT22;5466;55.898;14.094;2023-11-19T12:19:32;4.00;99.90
10826;DHT22;5466;55.898;14.094;2023-11-19T12:21:33;4.00;99.90
10826;DHT22;5466;55.898;14.094;2023-11-19T12:23:44;4.00;99.90
10826;DHT22;5466;55.898;14.094;2023-11-19T12:25:47;4.10;99.90
10826;DHT22;5466;55.898;14.094;2023-11-19T12:27:51;4.10;99.90
10826;DHT22;5466;55.898;14.094;2023-11-19T12:29:52;4.10;99.90
10826;DHT22;5466;55.898;14.094;2023-11-19T12:31:56;4.10;99.90
10826;DHT22;5466;55.898;14.094;2023-11-19T12:33:57;4.10;99.90
10826;DHT22;5466;55.898;14.094;2023-11-19T12:35:58;4.00;99.90
10826;DHT22;5466;55.898;14.094;2023-11-19T12:37:59;4.10;99.90
10826;DHT22;5466;55.898;14.094;2023-11-19T12:40:00;4.20;99.90
10826;DHT22;5466;55.898;14.094;2023-11-19T12:42:01;4.10;99.90
10826;DHT22;5466;55.898;14.094;2023-11-19T12:44:11;4.10;99.90
10826;DHT22;5466;55.898;14.094;2023-11-19T12:46:19;4.10;99.90
10826;DHT22;5466;55.898;14.094;2023-11-19T12:48:20;4.10;99.90
10826;DHT22;5466;55.898;14.094;2023-11-19T12:50:21;4.10;99.90
10826;DHT22;5466;55.898;14.094;2023-11-19T12:52:21;4.10;99.90
10826;DHT22;5466;55.898;14.094;2023-11-19T12:54:36;4.10;99.90
10826;DHT22;5466;55.898;14.094;2023-11-19T12:56:36;4.10;99.90
10826;DHT22;5466;55.898;14.094;2023-11-19T12:58:38;4.20;99.90
10826;DHT22;5466;55.898;14.094;2023-11-19T13:00:39;4.10;99.90
10826;DHT22;5466;55.898;14.094;2023-11-19T13:02:56;4.10;99.90
10826;DHT22;5466;55.898;14.094;2023-11-19T13:04:57;4.10;99.90
10826;DHT22;5466;55.898;14.094;2023-11-19T13:07:01;4.10;99.90
10826;DHT22;5466;55.898;14.094;2023-11-19T13:09:04;4.10;99.90
10826;DHT22;5466;55.898;14.094;2023-11-19T13:11:05;4.10;99.90
10826;DHT22;5466;55.898;14.094;2023-11-19T13:13:07;4.10;99.90
10826;DHT22;5466;55.898;14.094;2023-11-19T13:15:23;4.10;99.90
10826;DHT22;5466;55.898;14.094;2023-11-19T13:17:25;4.10;99.90
10826;DHT22;5466;55.898;14.094;2023-11-19T13:19:26;4.10;99.90